sensor_id;sensor_type;location;lat;lon;timestamp;temperature;humidity
66740;DHT22;53653;52.188;8.602;2023-04-03T00:00:50;2.57;73.92
66740;DHT22;53653;52.188;8.602;2023-04-03T00:03:17;2.46;74.05
66740;DHT22;53653;52.188;8.602;2023-04-03T00:05:43;2.47;74.31
66740;DHT22;53653;52.188;8.602;2023-04-03T00:08:09;2.44;74.16
66740;DHT22;53653;52.188;8.602;2023-04-03T00:10:35;2.39;74.17
66740;DHT22;53653;52.188;8.602;2023-04-03T00:13:02;2.34;74.50
66740;DHT22;53653;52.188;8.602;2023-04-03T00:15:28;2.30;74.87
66740;DHT22;53653;52.188;8.602;2023-04-03T00:17:54;2.30;74.84
66740;DHT22;53653;52.188;8.602;2023-04-03T00:20:20;2.23;75.31
66740;DHT22;53653;52.188;8.602;2023-04-03T00:22:46;2.19;75.54
66740;DHT22;53653;52.188;8.602;2023-04-03T00:25:12;2.20;75.67
66740;DHT22;53653;52.188;8.602;2023-04-03T00:27:38;2.23;75.54
66740;DHT22;53653;52.188;8.602;2023-04-03T00:30:07;2.18;75.77
66740;DHT22;53653;52.188;8.602;2023-04-03T00:32:32;2.13;75.94
66740;DHT22;53653;52.188;8.602;2023-04-03T00:34:58;2.08;76.14
66740;DHT22;53653;52.188;8.602;2023-04-03T00:37:24;2.01;76.61
66740;DHT22;53653;52.188;8.602;2023-04-03T00:39:50;1.97;76.71
66740;DHT22;53653;52.188;8.602;2023-04-03T00:42:16;1.98;76.49
66740;DHT22;53653;52.188;8.602;2023-04-03T00:47:10;1.92;76.63
66740;DHT22;53653;52.188;8.602;2023-04-03T00:49:37;1.89;76.79
66740;DHT22;53653;52.188;8.602;2023-04-03T00:52:03;1.85;76.84
66740;DHT22;53653;52.188;8.602;2023-04-03T00:54:32;1.79;76.88
66740;DHT22;53653;52.188;8.602;2023-04-03T00:56:59;1.78;77.27
66740;DHT22;53653;52.188;8.602;2023-04-03T00:59:28;1.74;77.58
66740;DHT22;53653;52.188;8.602;2023-04-03T01:01:57;1.74;77.33
66740;DHT22;53653;52.188;8.602;2023-04-03T01:04:35;1.68;77.55
66740;DHT22;53653;52.188;8.602;2023-04-03T01:07:07;1.64;77.76
66740;DHT22;53653;52.188;8.602;2023-04-03T01:09:34;1.60;77.86
66740;DHT22;53653;52.188;8.602;2023-04-03T01:12:24;1.58;78.01
66740;DHT22;53653;52.188;8.602;2023-04-03T01:14:54;1.55;78.15
66740;DHT22;53653;52.188;8.602;2023-04-03T01:17:56;1.52;78.25
66740;DHT22;53653;52.188;8.602;2023-04-03T01:25:41;1.36;78.95
66740;DHT22;53653;52.188;8.602;2023-04-03T01:28:11;1.34;78.94
66740;DHT22;53653;52.188;8.602;2023-04-03T01:30:47;1.26;79.32
66740;DHT22;53653;52.188;8.602;2023-04-03T01:33:14;1.23;79.57
66740;DHT22;53653;52.188;8.602;2023-04-03T01:35:40;1.23;79.48
66740;DHT22;53653;52.188;8.602;2023-04-03T01:38:06;1.24;79.44
66740;DHT22;53653;52.188;8.602;2023-04-03T01:40:32;1.19;79.75
66740;DHT22;53653;52.188;8.602;2023-04-03T01:42:58;1.12;79.87
66740;DHT22;53653;52.188;8.602;2023-04-03T01:45:23;1.10;79.85
66740;DHT22;53653;52.188;8.602;2023-04-03T01:47:49;1.03;80.20
66740;DHT22;53653;52.188;8.602;2023-04-03T01:50:15;1.00;80.52
66740;DHT22;53653;52.188;8.602;2023-04-03T01:52:41;0.95;80.67
66740;DHT22;53653;52.188;8.602;2023-04-03T01:55:07;0.92;80.79
66740;DHT22;53653;52.188;8.602;2023-04-03T01:57:33;0.89;80.90
66740;DHT22;53653;52.188;8.602;2023-04-03T01:59:58;0.85;81.02
66740;DHT22;53653;52.188;8.602;2023-04-03T02:02:24;0.86;81.20
66740;DHT22;53653;52.188;8.602;2023-04-03T02:04:51;0.79;81.23
66740;DHT22;53653;52.188;8.602;2023-04-03T02:07:17;0.75;81.28
66740;DHT22;53653;52.188;8.602;2023-04-03T02:09:42;0.76;81.35
66740;DHT22;53653;52.188;8.602;2023-04-03T02:12:08;0.71;81.44
66740;DHT22;53653;52.188;8.602;2023-04-03T02:14:34;0.69;81.39
66740;DHT22;53653;52.188;8.602;2023-04-03T02:17:01;0.69;81.57
66740;DHT22;53653;52.188;8.602;2023-04-03T02:19:30;0.71;81.53
66740;DHT22;53653;52.188;8.602;2023-04-03T02:21:56;0.65;81.60
66740;DHT22;53653;52.188;8.602;2023-04-03T02:24:22;0.62;81.63
66740;DHT22;53653;52.188;8.602;2023-04-03T02:26:47;0.61;81.45
66740;DHT22;53653;52.188;8.602;2023-04-03T02:29:13;0.60;81.51
66740;DHT22;53653;52.188;8.602;2023-04-03T02:31:39;0.60;81.39
66740;DHT22;53653;52.188;8.602;2023-04-03T02:34:05;0.57;81.30
66740;DHT22;53653;52.188;8.602;2023-04-03T02:36:31;0.57;81.54
66740;DHT22;53653;52.188;8.602;2023-04-03T02:38:59;0.54;81.41
66740;DHT22;53653;52.188;8.602;2023-04-03T02:41:24;0.51;81.37
66740;DHT22;53653;52.188;8.602;2023-04-03T02:43:54;0.52;81.33
66740;DHT22;53653;52.188;8.602;2023-04-03T02:46:20;0.47;81.34
66740;DHT22;53653;52.188;8.602;2023-04-03T02:48:45;0.47;81.45
66740;DHT22;53653;52.188;8.602;2023-04-03T02:51:11;0.44;81.49
66740;DHT22;53653;52.188;8.602;2023-04-03T02:53:37;0.40;81.54
66740;DHT22;53653;52.188;8.602;2023-04-03T02:56:09;0.37;81.68
66740;DHT22;53653;52.188;8.602;2023-04-03T02:58:34;0.38;81.53
66740;DHT22;53653;52.188;8.602;2023-04-03T03:01:02;0.33;81.67
66740;DHT22;53653;52.188;8.602;2023-04-03T03:03:27;0.30;81.65
66740;DHT22;53653;52.188;8.602;2023-04-03T03:06:10;0.27;81.80
66740;DHT22;53653;52.188;8.602;2023-04-03T03:08:36;0.27;81.90
66740;DHT22;53653;52.188;8.602;2023-04-03T03:11:02;0.23;81.88
66740;DHT22;53653;52.188;8.602;2023-04-03T03:13:28;0.24;81.72
66740;DHT22;53653;52.188;8.602;2023-04-03T03:15:54;0.21;81.91
66740;DHT22;53653;52.188;8.602;2023-04-03T03:18:21;0.21;82.08
66740;DHT22;53653;52.188;8.602;2023-04-03T03:20:54;0.20;81.98
66740;DHT22;53653;52.188;8.602;2023-04-03T03:23:21;0.14;82.31
66740;DHT22;53653;52.188;8.602;2023-04-03T03:25:47;0.16;82.34
66740;DHT22;53653;52.188;8.602;2023-04-03T03:28:12;0.13;82.65
66740;DHT22;53653;52.188;8.602;2023-04-03T03:30:38;0.11;82.73
66740;DHT22;53653;52.188;8.602;2023-04-03T03:33:04;0.10;82.94
66740;DHT22;53653;52.188;8.602;2023-04-03T03:35:29;0.09;83.06
66740;DHT22;53653;52.188;8.602;2023-04-03T03:37:55;0.07;83.10
66740;DHT22;53653;52.188;8.602;2023-04-03T03:40:21;0.02;83.30
66740;DHT22;53653;52.188;8.602;2023-04-03T03:42:47;-0.01;83.48
66740;DHT22;53653;52.188;8.602;2023-04-03T03:45:13;0.00;83.50
66740;DHT22;53653;52.188;8.602;2023-04-03T03:47:38;-0.07;83.69
66740;DHT22;53653;52.188;8.602;2023-04-03T03:50:06;-0.11;83.86
66740;DHT22;53653;52.188;8.602;2023-04-03T03:52:32;-0.13;84.03
66740;DHT22;53653;52.188;8.602;2023-04-03T03:54:58;-0.17;84.11
66740;DHT22;53653;52.188;8.602;2023-04-03T03:57:23;-0.14;84.15
66740;DHT22;53653;52.188;8.602;2023-04-03T03:59:49;-0.15;84.36
66740;DHT22;53653;52.188;8.602;2023-04-03T04:02:18;-0.21;84.56
66740;DHT22;53653;52.188;8.602;2023-04-03T04:04:43;-0.19;84.76
66740;DHT22;53653;52.188;8.602;2023-04-03T04:07:09;-0.25;84.78
66740;DHT22;53653;52.188;8.602;2023-04-03T04:09:35;-0.25;84.93
66740;DHT22;53653;52.188;8.602;2023-04-03T04:12:01;-0.28;85.18
66740;DHT22;53653;52.188;8.602;2023-04-03T04:14:28;-0.26;84.95
66740;DHT22;53653;52.188;8.602;2023-04-03T04:16:55;-0.29;85.14
66740;DHT22;53653;52.188;8.602;2023-04-03T04:19:24;-0.28;85.19
66740;DHT22;53653;52.188;8.602;2023-04-03T04:21:50;-0.34;85.42
66740;DHT22;53653;52.188;8.602;2023-04-03T04:24:16;-0.34;85.48
66740;DHT22;53653;52.188;8.602;2023-04-03T04:26:41;-0.31;85.32
66740;DHT22;53653;52.188;8.602;2023-04-03T04:29:10;-0.36;85.53
66740;DHT22;53653;52.188;8.602;2023-04-03T04:31:36;-0.39;85.56
66740;DHT22;53653;52.188;8.602;2023-04-03T04:34:02;-0.36;85.51
66740;DHT22;53653;52.188;8.602;2023-04-03T04:36:28;-0.42;85.78
66740;DHT22;53653;52.188;8.602;2023-04-03T04:38:54;-0.45;85.74
66740;DHT22;53653;52.188;8.602;2023-04-03T04:41:22;-0.45;86.00
66740;DHT22;53653;52.188;8.602;2023-04-03T04:43:50;-0.45;85.92
66740;DHT22;53653;52.188;8.602;2023-04-03T04:46:16;-0.45;86.11
66740;DHT22;53653;52.188;8.602;2023-04-03T04:48:47;-0.49;86.19
66740;DHT22;53653;52.188;8.602;2023-04-03T04:51:14;-0.51;86.25
66740;DHT22;53653;52.188;8.602;2023-04-03T04:53:40;-0.56;86.36
66740;DHT22;53653;52.188;8.602;2023-04-03T04:56:08;-0.55;86.42
66740;DHT22;53653;52.188;8.602;2023-04-03T04:58:35;-0.58;86.43
66740;DHT22;53653;52.188;8.602;2023-04-03T05:01:03;-0.58;86.39
66740;DHT22;53653;52.188;8.602;2023-04-03T05:03:31;-0.61;86.46
66740;DHT22;53653;52.188;8.602;2023-04-03T05:05:57;-0.61;86.60
66740;DHT22;53653;52.188;8.602;2023-04-03T05:08:23;-0.61;86.54
66740;DHT22;53653;52.188;8.602;2023-04-03T05:10:49;-0.59;86.53
66740;DHT22;53653;52.188;8.602;2023-04-03T05:13:17;-0.56;86.41
66740;DHT22;53653;52.188;8.602;2023-04-03T05:15:43;-0.59;86.49
66740;DHT22;53653;52.188;8.602;2023-04-03T05:18:09;-0.59;86.52
66740;DHT22;53653;52.188;8.602;2023-04-03T05:20:34;-0.59;86.57
66740;DHT22;53653;52.188;8.602;2023-04-03T05:23:00;-0.54;86.41
66740;DHT22;53653;52.188;8.602;2023-04-03T05:25:26;-0.48;86.30
66740;DHT22;53653;52.188;8.602;2023-04-03T05:27:52;-0.42;85.99
66740;DHT22;53653;52.188;8.602;2023-04-03T05:30:18;-0.32;85.74
66740;DHT22;53653;52.188;8.602;2023-04-03T05:32:46;-0.18;85.31
66740;DHT22;53653;52.188;8.602;2023-04-03T05:35:18;-0.11;84.85
66740;DHT22;53653;52.188;8.602;2023-04-03T05:37:46;0.09;84.26
66740;DHT22;53653;52.188;8.602;2023-04-03T05:40:13;0.23;83.45
66740;DHT22;53653;52.188;8.602;2023-04-03T05:42:42;0.23;83.39
66740;DHT22;53653;52.188;8.602;2023-04-03T05:45:08;0.31;83.01
66740;DHT22;53653;52.188;8.602;2023-04-03T05:47:35;0.40;82.68
66740;DHT22;53653;52.188;8.602;2023-04-03T05:50:01;0.55;81.94
66740;DHT22;53653;52.188;8.602;2023-04-03T05:52:30;0.73;81.64
66740;DHT22;53653;52.188;8.602;2023-04-03T05:54:57;0.71;81.52
66740;DHT22;53653;52.188;8.602;2023-04-03T05:57:25;0.89;80.88
66740;DHT22;53653;52.188;8.602;2023-04-03T05:59:51;1.04;80.28
66740;DHT22;53653;52.188;8.602;2023-04-03T06:02:20;1.15;79.83
66740;DHT22;53653;52.188;8.602;2023-04-03T06:04:47;1.17;78.96
66740;DHT22;53653;52.188;8.602;2023-04-03T06:07:21;1.30;79.24
66740;DHT22;53653;52.188;8.602;2023-04-03T06:09:51;1.33;78.72
66740;DHT22;53653;52.188;8.602;2023-04-03T06:12:18;1.55;78.28
66740;DHT22;53653;52.188;8.602;2023-04-03T06:14:43;1.58;77.61
66740;DHT22;53653;52.188;8.602;2023-04-03T06:17:09;1.58;77.24
66740;DHT22;53653;52.188;8.602;2023-04-03T06:19:36;1.62;77.16
66740;DHT22;53653;52.188;8.602;2023-04-03T06:22:03;1.82;76.93
66740;DHT22;53653;52.188;8.602;2023-04-03T06:24:29;1.77;76.84
66740;DHT22;53653;52.188;8.602;2023-04-03T06:26:56;1.85;76.51
66740;DHT22;53653;52.188;8.602;2023-04-03T06:29:22;2.01;76.18
66740;DHT22;53653;52.188;8.602;2023-04-03T06:31:48;2.01;76.12
66740;DHT22;53653;52.188;8.602;2023-04-03T06:34:14;2.18;75.47
66740;DHT22;53653;52.188;8.602;2023-04-03T06:36:41;2.25;75.43
66740;DHT22;53653;52.188;8.602;2023-04-03T06:39:09;2.49;74.25
66740;DHT22;53653;52.188;8.602;2023-04-03T06:41:38;2.30;74.54
66740;DHT22;53653;52.188;8.602;2023-04-03T06:44:04;2.57;74.72
66740;DHT22;53653;52.188;8.602;2023-04-03T06:46:29;2.53;73.49
66740;DHT22;53653;52.188;8.602;2023-04-03T06:48:55;2.58;73.46
66740;DHT22;53653;52.188;8.602;2023-04-03T06:51:26;2.54;73.43
66740;DHT22;53653;52.188;8.602;2023-04-03T06:53:55;2.47;73.46
66740;DHT22;53653;52.188;8.602;2023-04-03T06:56:21;2.53;73.17
66740;DHT22;53653;52.188;8.602;2023-04-03T06:58:47;2.64;72.82
66740;DHT22;53653;52.188;8.602;2023-04-03T07:01:15;2.29;73.31
66740;DHT22;53653;52.188;8.602;2023-04-03T07:03:42;2.73;73.04
66740;DHT22;53653;52.188;8.602;2023-04-03T07:06:11;2.60;71.92
66740;DHT22;53653;52.188;8.602;2023-04-03T07:08:38;2.81;72.37
66740;DHT22;53653;52.188;8.602;2023-04-03T07:11:05;3.15;71.92
66740;DHT22;53653;52.188;8.602;2023-04-03T07:13:31;3.15;71.02
66740;DHT22;53653;52.188;8.602;2023-04-03T07:15:58;3.53;70.58
66740;DHT22;53653;52.188;8.602;2023-04-03T07:18:23;3.59;69.73
66740;DHT22;53653;52.188;8.602;2023-04-03T07:20:49;3.64;69.01
66740;DHT22;53653;52.188;8.602;2023-04-03T07:23:15;3.40;69.27
66740;DHT22;53653;52.188;8.602;2023-04-03T07:25:45;3.43;69.64
66740;DHT22;53653;52.188;8.602;2023-04-03T07:28:12;3.73;68.40
66740;DHT22;53653;52.188;8.602;2023-04-03T07:30:48;3.70;68.42
66740;DHT22;53653;52.188;8.602;2023-04-03T07:33:16;3.94;66.59
66740;DHT22;53653;52.188;8.602;2023-04-03T07:35:43;3.74;66.90
66740;DHT22;53653;52.188;8.602;2023-04-03T07:38:09;3.80;67.03
66740;DHT22;53653;52.188;8.602;2023-04-03T07:40:36;3.70;65.86
66740;DHT22;53653;52.188;8.602;2023-04-03T07:43:02;3.60;65.95
66740;DHT22;53653;52.188;8.602;2023-04-03T07:45:28;3.81;65.80
66740;DHT22;53653;52.188;8.602;2023-04-03T07:47:54;3.93;65.18
66740;DHT22;53653;52.188;8.602;2023-04-03T07:50:20;3.98;65.36
66740;DHT22;53653;52.188;8.602;2023-04-03T07:52:47;3.57;64.99
66740;DHT22;53653;52.188;8.602;2023-04-03T07:55:12;4.05;64.90
66740;DHT22;53653;52.188;8.602;2023-04-03T07:57:38;4.06;64.92
66740;DHT22;53653;52.188;8.602;2023-04-03T08:00:04;4.18;65.24
66740;DHT22;53653;52.188;8.602;2023-04-03T08:02:50;4.63;64.63
66740;DHT22;53653;52.188;8.602;2023-04-03T08:05:21;4.59;63.32
66740;DHT22;53653;52.188;8.602;2023-04-03T08:07:47;4.36;63.30
66740;DHT22;53653;52.188;8.602;2023-04-03T08:10:14;4.19;64.65
66740;DHT22;53653;52.188;8.602;2023-04-03T08:12:40;4.54;63.52
66740;DHT22;53653;52.188;8.602;2023-04-03T08:15:07;4.48;63.51
66740;DHT22;53653;52.188;8.602;2023-04-03T08:17:33;4.91;62.39
66740;DHT22;53653;52.188;8.602;2023-04-03T08:20:00;4.77;62.87
66740;DHT22;53653;52.188;8.602;2023-04-03T08:22:26;4.38;64.35
66740;DHT22;53653;52.188;8.602;2023-04-03T08:24:51;4.57;62.82
66740;DHT22;53653;52.188;8.602;2023-04-03T08:27:17;4.94;62.84
66740;DHT22;53653;52.188;8.602;2023-04-03T08:29:43;5.15;62.69
66740;DHT22;53653;52.188;8.602;2023-04-03T08:32:08;5.30;62.40
66740;DHT22;53653;52.188;8.602;2023-04-03T08:34:34;5.59;60.79
66740;DHT22;53653;52.188;8.602;2023-04-03T08:37:03;5.20;61.86
66740;DHT22;53653;52.188;8.602;2023-04-03T08:39:28;5.51;60.95
66740;DHT22;53653;52.188;8.602;2023-04-03T08:41:57;5.38;60.85
66740;DHT22;53653;52.188;8.602;2023-04-03T08:49:39;5.83;59.59
66740;DHT22;53653;52.188;8.602;2023-04-03T08:52:11;5.94;59.77
66740;DHT22;53653;52.188;8.602;2023-04-03T08:54:52;5.74;59.66
66740;DHT22;53653;52.188;8.602;2023-04-03T08:57:40;5.74;60.08
66740;DHT22;53653;52.188;8.602;2023-04-03T09:02:43;5.35;58.90
66740;DHT22;53653;52.188;8.602;2023-04-03T09:06:05;5.36;57.64
66740;DHT22;53653;52.188;8.602;2023-04-03T09:11:24;5.62;56.31
66740;DHT22;53653;52.188;8.602;2023-04-03T09:14:12;5.79;56.32
66740;DHT22;53653;52.188;8.602;2023-04-03T09:21:51;6.82;55.95
66740;DHT22;53653;52.188;8.602;2023-04-03T09:24:17;7.26;55.85
66740;DHT22;53653;52.188;8.602;2023-04-03T09:26:51;6.97;54.81
66740;DHT22;53653;52.188;8.602;2023-04-03T09:29:21;6.13;54.88
66740;DHT22;53653;52.188;8.602;2023-04-03T09:31:49;6.21;55.72
66740;DHT22;53653;52.188;8.602;2023-04-03T09:34:22;6.48;54.40
66740;DHT22;53653;52.188;8.602;2023-04-03T09:36:54;6.96;54.72
66740;DHT22;53653;52.188;8.602;2023-04-03T09:39:28;6.80;53.71
66740;DHT22;53653;52.188;8.602;2023-04-03T09:42:11;6.64;53.73
66740;DHT22;53653;52.188;8.602;2023-04-03T09:44:40;7.14;54.41
66740;DHT22;53653;52.188;8.602;2023-04-03T09:47:29;6.99;54.42
66740;DHT22;53653;52.188;8.602;2023-04-03T09:52:48;7.28;52.73
66740;DHT22;53653;52.188;8.602;2023-04-03T09:55:26;7.18;49.73
66740;DHT22;53653;52.188;8.602;2023-04-03T09:58:00;6.72;51.10
66740;DHT22;53653;52.188;8.602;2023-04-03T10:00:27;6.99;49.95
66740;DHT22;53653;52.188;8.602;2023-04-03T10:02:57;6.85;49.76
66740;DHT22;53653;52.188;8.602;2023-04-03T10:05:39;7.21;50.25
66740;DHT22;53653;52.188;8.602;2023-04-03T10:08:21;7.28;51.28
66740;DHT22;53653;52.188;8.602;2023-04-03T10:11:12;7.78;51.40
66740;DHT22;53653;52.188;8.602;2023-04-03T10:14:02;7.35;51.64
66740;DHT22;53653;52.188;8.602;2023-04-03T10:16:41;6.62;53.25
66740;DHT22;53653;52.188;8.602;2023-04-03T10:19:31;6.18;52.97
66740;DHT22;53653;52.188;8.602;2023-04-03T10:22:37;6.00;54.68
66740;DHT22;53653;52.188;8.602;2023-04-03T10:25:21;5.74;54.48
66740;DHT22;53653;52.188;8.602;2023-04-03T10:28:02;5.70;55.82
66740;DHT22;53653;52.188;8.602;2023-04-03T10:47:03;7.06;52.56
66740;DHT22;53653;52.188;8.602;2023-04-03T10:49:40;7.71;51.04
66740;DHT22;53653;52.188;8.602;2023-04-03T10:52:25;8.33;50.27
66740;DHT22;53653;52.188;8.602;2023-04-03T10:57:27;7.89;48.05
66740;DHT22;53653;52.188;8.602;2023-04-03T11:00:00;7.93;48.32
66740;DHT22;53653;52.188;8.602;2023-04-03T11:02:34;8.05;47.55
66740;DHT22;53653;52.188;8.602;2023-04-03T11:05:14;8.05;47.56
66740;DHT22;53653;52.188;8.602;2023-04-03T11:07:50;8.36;46.97
66740;DHT22;53653;52.188;8.602;2023-04-03T11:10:24;8.40;46.54
66740;DHT22;53653;52.188;8.602;2023-04-03T11:13:11;8.45;47.32
66740;DHT22;53653;52.188;8.602;2023-04-03T11:15:38;8.71;46.16
66740;DHT22;53653;52.188;8.602;2023-04-03T11:18:09;8.54;47.79
66740;DHT22;53653;52.188;8.602;2023-04-03T11:20:36;8.09;47.96
66740;DHT22;53653;52.188;8.602;2023-04-03T11:23:06;8.68;47.48
66740;DHT22;53653;52.188;8.602;2023-04-03T11:25:38;8.61;46.93
66740;DHT22;53653;52.188;8.602;2023-04-03T11:28:09;8.12;47.63
66740;DHT22;53653;52.188;8.602;2023-04-03T11:30:52;8.33;45.67
66740;DHT22;53653;52.188;8.602;2023-04-03T11:36:24;8.06;45.52
66740;DHT22;53653;52.188;8.602;2023-04-03T11:38:54;8.48;45.55
66740;DHT22;53653;52.188;8.602;2023-04-03T11:41:31;7.85;44.89
66740;DHT22;53653;52.188;8.602;2023-04-03T11:44:04;7.57;45.01
66740;DHT22;53653;52.188;8.602;2023-04-03T11:46:51;8.33;47.84
66740;DHT22;53653;52.188;8.602;2023-04-03T12:00:50;8.02;46.55
66740;DHT22;53653;52.188;8.602;2023-04-03T12:29:20;8.91;45.66
66740;DHT22;53653;52.188;8.602;2023-04-03T12:37:12;7.72;47.33
66740;DHT22;53653;52.188;8.602;2023-04-03T12:42:40;7.66;48.07
66740;DHT22;53653;52.188;8.602;2023-04-03T12:45:26;7.75;47.00
66740;DHT22;53653;52.188;8.602;2023-04-03T12:47:56;7.86;47.11
66740;DHT22;53653;52.188;8.602;2023-04-03T12:50:28;8.12;47.64
66740;DHT22;53653;52.188;8.602;2023-04-03T12:53:21;8.40;45.53
66740;DHT22;53653;52.188;8.602;2023-04-03T12:55:54;7.99;47.16
66740;DHT22;53653;52.188;8.602;2023-04-03T12:58:24;7.76;47.40
66740;DHT22;53653;52.188;8.602;2023-04-03T13:01:25;7.78;45.74
66740;DHT22;53653;52.188;8.602;2023-04-03T13:03:58;7.68;45.46
66740;DHT22;53653;52.188;8.602;2023-04-03T13:06:27;7.59;46.06
66740;DHT22;53653;52.188;8.602;2023-04-03T13:08:58;7.48;46.76
66740;DHT22;53653;52.188;8.602;2023-04-03T13:11:28;7.66;47.09
66740;DHT22;53653;52.188;8.602;2023-04-03T13:14:04;7.72;46.77
66740;DHT22;53653;52.188;8.602;2023-04-03T13:16:31;7.50;45.60
66740;DHT22;53653;52.188;8.602;2023-04-03T13:18:58;7.55;45.87
66740;DHT22;53653;52.188;8.602;2023-04-03T13:21:27;7.51;45.44
66740;DHT22;53653;52.188;8.602;2023-04-03T13:23:56;7.75;45.07
66740;DHT22;53653;52.188;8.602;2023-04-03T13:26:25;7.85;45.04
66740;DHT22;53653;52.188;8.602;2023-04-03T13:28:56;8.16;44.40
66740;DHT22;53653;52.188;8.602;2023-04-03T13:31:26;8.09;45.06
66740;DHT22;53653;52.188;8.602;2023-04-03T13:34:18;7.86;44.10
66740;DHT22;53653;52.188;8.602;2023-04-03T13:41:46;7.90;44.95
66740;DHT22;53653;52.188;8.602;2023-04-03T13:46:48;7.74;44.80
66740;DHT22;53653;52.188;8.602;2023-04-03T13:49:33;7.72;44.84
66740;DHT22;53653;52.188;8.602;2023-04-03T13:52:00;7.74;45.20
66740;DHT22;53653;52.188;8.602;2023-04-03T13:54:31;7.69;46.69
66740;DHT22;53653;52.188;8.602;2023-04-03T13:56:58;7.69;46.12
66740;DHT22;53653;52.188;8.602;2023-04-03T13:59:32;7.45;45.54
66740;DHT22;53653;52.188;8.602;2023-04-03T14:04:29;8.14;44.98
66740;DHT22;53653;52.188;8.602;2023-04-03T14:06:55;8.29;45.06
66740;DHT22;53653;52.188;8.602;2023-04-03T14:09:23;7.85;45.44
66740;DHT22;53653;52.188;8.602;2023-04-03T14:11:50;8.05;45.49
66740;DHT22;53653;52.188;8.602;2023-04-03T14:14:29;7.85;45.56
66740;DHT22;53653;52.188;8.602;2023-04-03T14:16:59;7.68;44.31
66740;DHT22;53653;52.188;8.602;2023-04-03T14:19:33;7.43;46.37
66740;DHT22;53653;52.188;8.602;2023-04-03T14:22:00;7.52;46.22
66740;DHT22;53653;52.188;8.602;2023-04-03T14:24:26;7.52;45.34
66740;DHT22;53653;52.188;8.602;2023-04-03T14:26:53;7.81;45.73
66740;DHT22;53653;52.188;8.602;2023-04-03T14:29:21;7.95;45.38
66740;DHT22;53653;52.188;8.602;2023-04-03T14:31:48;7.83;43.32
66740;DHT22;53653;52.188;8.602;2023-04-03T14:34:15;7.97;43.80
66740;DHT22;53653;52.188;8.602;2023-04-03T14:36:41;8.20;43.29
66740;DHT22;53653;52.188;8.602;2023-04-03T14:39:11;8.54;44.28
66740;DHT22;53653;52.188;8.602;2023-04-03T14:41:41;8.02;43.35
66740;DHT22;53653;52.188;8.602;2023-04-03T14:44:08;7.75;43.72
66740;DHT22;53653;52.188;8.602;2023-04-03T14:46:39;7.79;44.29
66740;DHT22;53653;52.188;8.602;2023-04-03T14:49:14;7.95;43.50
66740;DHT22;53653;52.188;8.602;2023-04-03T14:51:39;8.12;43.23
66740;DHT22;53653;52.188;8.602;2023-04-03T14:54:14;8.40;44.29
66740;DHT22;53653;52.188;8.602;2023-04-03T14:56:40;8.43;43.65
66740;DHT22;53653;52.188;8.602;2023-04-03T14:59:10;8.50;44.09
66740;DHT22;53653;52.188;8.602;2023-04-03T15:01:37;8.00;43.48
66740;DHT22;53653;52.188;8.602;2023-04-03T15:04:10;8.16;44.14
66740;DHT22;53653;52.188;8.602;2023-04-03T15:06:36;8.44;43.66
66740;DHT22;53653;52.188;8.602;2023-04-03T15:09:01;8.55;42.99
66740;DHT22;53653;52.188;8.602;2023-04-03T15:11:28;8.60;44.07
66740;DHT22;53653;52.188;8.602;2023-04-03T15:13:54;8.47;43.96
66740;DHT22;53653;52.188;8.602;2023-04-03T15:16:19;8.06;44.31
66740;DHT22;53653;52.188;8.602;2023-04-03T15:18:45;7.52;44.78
66740;DHT22;53653;52.188;8.602;2023-04-03T15:21:12;7.57;43.73
66740;DHT22;53653;52.188;8.602;2023-04-03T15:23:38;7.64;45.40
66740;DHT22;53653;52.188;8.602;2023-04-03T15:26:04;7.40;45.86
66740;DHT22;53653;52.188;8.602;2023-04-03T15:28:39;7.57;45.74
66740;DHT22;53653;52.188;8.602;2023-04-03T15:31:05;7.86;43.44
66740;DHT22;53653;52.188;8.602;2023-04-03T15:33:32;7.87;44.19
66740;DHT22;53653;52.188;8.602;2023-04-03T15:35:58;8.06;44.61
66740;DHT22;53653;52.188;8.602;2023-04-03T15:38:24;7.93;44.34
66740;DHT22;53653;52.188;8.602;2023-04-03T15:40:50;8.02;43.65
66740;DHT22;53653;52.188;8.602;2023-04-03T15:43:16;7.99;43.59
66740;DHT22;53653;52.188;8.602;2023-04-03T15:45:42;8.14;43.66
66740;DHT22;53653;52.188;8.602;2023-04-03T15:48:09;8.36;43.12
66740;DHT22;53653;52.188;8.602;2023-04-03T15:50:35;8.03;43.25
66740;DHT22;53653;52.188;8.602;2023-04-03T15:53:02;8.02;44.33
66740;DHT22;53653;52.188;8.602;2023-04-03T15:55:33;7.92;44.01
66740;DHT22;53653;52.188;8.602;2023-04-03T15:57:59;7.87;44.03
66740;DHT22;53653;52.188;8.602;2023-04-03T16:00:27;7.75;44.58
66740;DHT22;53653;52.188;8.602;2023-04-03T16:03:00;7.64;44.25
66740;DHT22;53653;52.188;8.602;2023-04-03T16:05:27;7.81;44.55
66740;DHT22;53653;52.188;8.602;2023-04-03T16:07:52;7.95;44.33
66740;DHT22;53653;52.188;8.602;2023-04-03T16:10:20;8.22;43.43
66740;DHT22;53653;52.188;8.602;2023-04-03T16:12:45;8.34;43.17
66740;DHT22;53653;52.188;8.602;2023-04-03T16:15:11;8.85;42.30
66740;DHT22;53653;52.188;8.602;2023-04-03T16:17:37;9.05;41.91
66740;DHT22;53653;52.188;8.602;2023-04-03T16:20:06;10.08;39.54
66740;DHT22;53653;52.188;8.602;2023-04-03T16:22:32;10.26;39.46
66740;DHT22;53653;52.188;8.602;2023-04-03T16:24:58;9.84;40.83
66740;DHT22;53653;52.188;8.602;2023-04-03T16:27:24;8.48;43.36
66740;DHT22;53653;52.188;8.602;2023-04-03T16:29:54;7.86;43.20
66740;DHT22;53653;52.188;8.602;2023-04-03T16:32:20;7.72;43.47
66740;DHT22;53653;52.188;8.602;2023-04-03T16:34:47;7.58;44.93
66740;DHT22;53653;52.188;8.602;2023-04-03T16:37:13;7.32;44.53
66740;DHT22;53653;52.188;8.602;2023-04-03T16:39:39;7.41;45.52
66740;DHT22;53653;52.188;8.602;2023-04-03T16:42:05;7.23;44.44
66740;DHT22;53653;52.188;8.602;2023-04-03T16:44:30;7.35;45.00
66740;DHT22;53653;52.188;8.602;2023-04-03T16:46:56;7.20;45.48
66740;DHT22;53653;52.188;8.602;2023-04-03T16:49:21;7.27;45.41
66740;DHT22;53653;52.188;8.602;2023-04-03T16:51:48;7.24;45.01
66740;DHT22;53653;52.188;8.602;2023-04-03T16:54:14;7.32;45.74
66740;DHT22;53653;52.188;8.602;2023-04-03T16:56:40;7.32;45.01
66740;DHT22;53653;52.188;8.602;2023-04-03T16:59:06;7.21;45.63
66740;DHT22;53653;52.188;8.602;2023-04-03T17:01:32;7.27;46.20
66740;DHT22;53653;52.188;8.602;2023-04-03T17:03:58;7.11;45.60
66740;DHT22;53653;52.188;8.602;2023-04-03T17:06:23;7.03;45.69
66740;DHT22;53653;52.188;8.602;2023-04-03T17:08:51;7.03;45.89
66740;DHT22;53653;52.188;8.602;2023-04-03T17:11:29;7.01;46.18
66740;DHT22;53653;52.188;8.602;2023-04-03T17:13:55;7.07;46.70
66740;DHT22;53653;52.188;8.602;2023-04-03T17:16:20;7.13;46.87
66740;DHT22;53653;52.188;8.602;2023-04-03T17:18:46;7.00;46.48
66740;DHT22;53653;52.188;8.602;2023-04-03T17:21:13;7.00;46.72
66740;DHT22;53653;52.188;8.602;2023-04-03T17:23:41;7.01;47.27
66740;DHT22;53653;52.188;8.602;2023-04-03T17:26:08;6.90;46.82
66740;DHT22;53653;52.188;8.602;2023-04-03T17:28:33;6.83;47.25
66740;DHT22;53653;52.188;8.602;2023-04-03T17:31:00;6.82;47.14
66740;DHT22;53653;52.188;8.602;2023-04-03T17:33:26;6.85;48.08
66740;DHT22;53653;52.188;8.602;2023-04-03T17:35:56;6.82;48.30
66740;DHT22;53653;52.188;8.602;2023-04-03T17:38:22;6.78;48.77
66740;DHT22;53653;52.188;8.602;2023-04-03T17:40:47;6.73;48.33